createdAt,value
2018-09-06T00:00:05.086Z,23.8
2018-09-06T00:30:04.377Z,23.5
2018-09-06T00:45:04.548Z,23.4
2018-09-06T01:00:04.522Z,23.4
2018-09-06T01:15:04.441Z,23.3
2018-09-06T01:30:04.616Z,23.2
2018-09-06T01:45:05.220Z,23.1
2018-09-06T02:00:05.346Z,23
2018-09-06T02:15:04.419Z,22.9
2018-09-06T02:30:04.762Z,22.9
2018-09-06T02:45:04.423Z,11.4
2018-09-06T03:00:04.421Z,22.7
2018-09-06T03:15:05.081Z,22.6
2018-09-06T03:30:04.999Z,22.6
2018-09-06T03:45:05.074Z,22.5
2018-09-06T04:00:04.899Z,22.3
2018-09-06T04:15:04.293Z,22.3
2018-09-06T04:30:05.409Z,22.2
2018-09-06T04:45:04.908Z,22.1
2018-09-06T05:00:04.903Z,22.1
2018-09-06T05:15:05.023Z,22
2018-09-06T05:30:05.155Z,22
2018-09-06T05:45:04.641Z,21.9
2018-09-06T06:00:04.681Z,21.9
2018-09-06T06:15:04.787Z,22
2018-09-06T06:30:05.185Z,22
2018-09-06T06:45:05.111Z,22.2
2018-09-06T07:00:05.060Z,22.6
2018-09-06T07:15:04.637Z,23
2018-09-06T07:30:04.264Z,23.5
2018-09-06T07:45:05.213Z,24.1
2018-09-06T08:00:04.863Z,25
2018-09-06T08:15:04.912Z,27.7
2018-09-06T08:30:05.051Z,26.8
2018-09-06T08:45:04.990Z,28.2
2018-09-06T09:00:04.991Z,29.7
2018-09-06T09:15:04.949Z,27
2018-09-06T09:30:05.141Z,26.2
2018-09-06T09:45:04.975Z,25.8
2018-09-06T10:00:04.422Z,25.6
2018-09-06T10:15:04.345Z,25.5
2018-09-06T10:30:04.539Z,25.6
2018-09-06T10:45:05.058Z,25.6
2018-09-06T11:00:04.504Z,25.5
2018-09-06T11:15:04.990Z,25.6
2018-09-06T11:30:04.731Z,25.5
2018-09-06T11:45:04.677Z,25.6
2018-09-06T12:00:04.678Z,25.7
2018-09-06T12:15:04.661Z,25.5
2018-09-06T12:30:04.935Z,25.7
2018-09-06T12:45:04.494Z,25.7
2018-09-06T13:00:05.059Z,25.7
2018-09-06T13:15:05.064Z,25.9
2018-09-06T13:30:04.888Z,25.9
2018-09-06T13:45:05.073Z,25.9
2018-09-06T14:00:05.126Z,25.9
2018-09-06T14:15:05.015Z,26
2018-09-06T14:30:04.660Z,25.9
2018-09-06T14:45:05.311Z,26.1
2018-09-06T15:00:04.793Z,26.1
2018-09-06T15:15:04.175Z,26.1
2018-09-06T15:30:04.372Z,26
2018-09-06T15:45:04.807Z,26.1
2018-09-06T16:00:04.448Z,26.1
2018-09-06T16:15:04.612Z,26.2
2018-09-06T16:30:05.387Z,26.2
2018-09-06T16:45:04.508Z,26.2
2018-09-06T17:00:04.505Z,26.2
2018-09-06T17:15:04.935Z,26.3
2018-09-06T17:30:04.616Z,26.2
2018-09-06T17:45:05.073Z,26.1
2018-09-06T18:00:05.225Z,26.1
2018-09-06T18:15:04.710Z,25.9
2018-09-06T18:30:04.855Z,25.5
2018-09-06T18:45:04.371Z,25.3
2018-09-06T19:00:04.574Z,25.3
2018-09-06T19:15:05.079Z,25.1
2018-09-06T19:30:04.314Z,25.1
2018-09-06T19:45:04.349Z,25
2018-09-06T20:00:05.441Z,25
2018-09-06T20:15:04.815Z,25.2
2018-09-06T20:30:04.492Z,25.1
2018-09-06T20:45:04.426Z,25
2018-09-06T21:00:04.365Z,25
2018-09-06T21:15:05.022Z,25
2018-09-06T21:30:04.825Z,24.9
2018-09-06T21:45:05.121Z,24.8
2018-09-06T22:00:04.581Z,24.8
2018-09-06T22:15:04.671Z,24.7
2018-09-06T22:30:04.886Z,24.6
2018-09-06T22:45:04.294Z,24.6
2018-09-06T23:00:04.298Z,24.6
2018-09-06T23:15:04.220Z,24.5
2018-09-06T23:30:04.338Z,24.4
2018-09-06T23:45:04.765Z,24.3
